Time;durP1;ratioP1;P1;durP2;ratioP2;P2;SDS_P1;SDS_P2;PMS_P1;PMS_P2;Temp;Humidity;BMP_temperature;BMP_pressure;BME280_temperature;BME280_humidity;BME280_pressure;Samples;Min_cycle;Max_cycle;Signal;HPM_P1;HPM_P2
2022/07/02 00:00:45;;;;;;;6.63;3.37;;;;;;;;;;5339295;27;20634;-82
2022/07/02 00:03:23;;;;;;;5.05;3.20;;;;;;;;;;5341306;27;20688;-81
2022/07/02 00:05:59;;;;;;;7.05;3.58;;;;;;;;;;5343635;27;20039;-82
2022/07/02 00:08:30;;;;;;;7.28;3.70;;;;;;;;;;5341461;27;20099;-82
2022/07/02 00:11:05;;;;;;;6.03;3.42;;;;;;;;;;5339284;27;20096;-82
2022/07/02 00:13:37;;;;;;;9.15;3.25;;;;;;;;;;5341557;27;20442;-82
2022/07/02 00:16:11;;;;;;;5.13;3.55;;;;;;;;;;5342209;27;20031;-81
2022/07/02 00:18:42;;;;;;;7.82;3.67;;;;;;;;;;5338372;27;20104;-82
2022/07/02 00:21:14;;;;;;;5.90;3.65;;;;;;;;;;5339812;27;20071;-82
2022/07/02 00:23:45;;;;;;;5.65;3.75;;;;;;;;;;5345130;27;20023;-81
2022/07/02 00:26:22;;;;;;;6.03;3.83;;;;;;;;;;5352308;27;20114;-82
2022/07/02 00:29:00;;;;;;;5.50;4.25;;;;;;;;;;5337365;27;20395;-82
2022/07/02 00:31:31;;;;;;;6.25;4.28;;;;;;;;;;5321643;27;20019;-82
2022/07/02 00:34:03;;;;;;;7.40;3.80;;;;;;;;;;5336023;27;20034;-82
2022/07/02 00:36:34;;;;;;;12.05;4.30;;;;;;;;;;5318883;27;20641;-82
2022/07/02 00:39:06;;;;;;;5.28;3.60;;;;;;;;;;5339197;27;20047;-82
2022/07/02 00:41:37;;;;;;;8.68;3.88;;;;;;;;;;5321589;27;20039;-82
2022/07/02 00:44:08;;;;;;;5.68;4.05;;;;;;;;;;5340503;27;20402;-82
2022/07/02 00:46:40;;;;;;;5.88;3.25;;;;;;;;;;5336934;27;20059;-82
2022/07/02 00:49:12;;;;;;;5.50;3.80;;;;;;;;;;5331989;27;20111;-82
2022/07/02 00:51:43;;;;;;;6.22;3.85;;;;;;;;;;5319747;27;20039;-82
2022/07/02 00:54:14;;;;;;;7.27;3.57;;;;;;;;;;5316605;27;20051;-82
2022/07/02 00:56:46;;;;;;;5.35;3.47;;;;;;;;;;5321302;27;20027;-82
2022/07/02 00:59:17;;;;;;;5.35;3.00;;;;;;;;;;5339652;27;20415;-82
2022/07/02 01:01:48;;;;;;;12.65;3.65;;;;;;;;;;5334716;27;20554;-82
2022/07/02 01:04:20;;;;;;;8.85;3.20;;;;;;;;;;5318460;27;20114;-82
2022/07/02 01:06:52;;;;;;;4.63;3.15;;;;;;;;;;5338834;27;20038;-81
2022/07/02 01:12:15;;;;;;;6.97;3.47;;;;;;;;;;5342097;27;20471;-81
2022/07/02 01:14:46;;;;;;;8.00;2.88;;;;;;;;;;5341255;27;20115;-81
2022/07/02 01:17:18;;;;;;;4.40;3.13;;;;;;;;;;5340937;27;20024;-81
2022/07/02 01:19:49;;;;;;;7.88;3.40;;;;;;;;;;5340231;27;20031;-81
2022/07/02 01:22:21;;;;;;;7.90;3.37;;;;;;;;;;5343993;27;20110;-81
2022/07/02 01:24:53;;;;;;;5.88;3.30;;;;;;;;;;5338989;27;20284;-81
2022/07/02 01:27:24;;;;;;;7.63;3.00;;;;;;;;;;5342349;27;20036;-81
2022/07/02 01:29:56;;;;;;;7.33;3.23;;;;;;;;;;5343989;27;20359;-81
2022/07/02 01:32:27;;;;;;;4.97;3.10;;;;;;;;;;5342952;27;20128;-81
2022/07/02 01:35:03;;;;;;;8.13;3.00;;;;;;;;;;5323787;27;20471;-82
2022/07/02 01:37:36;;;;;;;7.20;3.05;;;;;;;;;;5339967;27;20317;-82
2022/07/02 01:40:08;;;;;;;6.50;2.70;;;;;;;;;;5334769;27;20459;-82
2022/07/02 01:42:40;;;;;;;5.25;3.00;;;;;;;;;;5312829;27;20751;-82
2022/07/02 01:45:11;;;;;;;6.55;2.80;;;;;;;;;;5340539;27;20039;-81
2022/07/02 01:47:42;;;;;;;6.20;2.57;;;;;;;;;;5340548;27;20030;-81
2022/07/02 01:50:13;;;;;;;6.05;2.40;;;;;;;;;;5341765;27;20295;-82
2022/07/02 01:52:45;;;;;;;7.07;3.40;;;;;;;;;;5340842;27;20016;-82
2022/07/02 01:55:16;;;;;;;5.87;3.00;;;;;;;;;;5340482;27;20666;-82
2022/07/02 01:57:48;;;;;;;4.03;2.65;;;;;;;;;;5341862;27;20297;-82
2022/07/02 02:00:19;;;;;;;6.60;3.03;;;;;;;;;;5342020;27;20056;-83
2022/07/02 02:02:50;;;;;;;6.90;3.00;;;;;;;;;;5340863;27;20028;-83
2022/07/02 02:05:22;;;;;;;10.35;3.28;;;;;;;;;;5325439;27;20360;-83
2022/07/02 02:07:53;;;;;;;8.00;3.20;;;;;;;;;;5340522;27;20030;-83
2022/07/02 02:10:24;;;;;;;9.23;3.47;;;;;;;;;;5341438;27;20024;-83
2022/07/02 02:12:55;;;;;;;8.07;2.97;;;;;;;;;;5340764;27;20433;-81
2022/07/02 02:15:26;;;;;;;6.30;2.77;;;;;;;;;;5340294;27;20313;-82
2022/07/02 02:17:57;;;;;;;5.93;3.10;;;;;;;;;;5339965;27;20047;-81
2022/07/02 02:20:29;;;;;;;6.43;3.40;;;;;;;;;;5339785;27;20241;-80
2022/07/02 02:23:04;;;;;;;7.68;3.22;;;;;;;;;;5342948;27;20249;-80
2022/07/02 02:25:35;;;;;;;9.88;3.25;;;;;;;;;;5340941;27;20031;-80
2022/07/02 02:28:06;;;;;;;8.00;2.93;;;;;;;;;;5341837;27;20544;-80
2022/07/02 02:30:37;;;;;;;7.37;3.10;;;;;;;;;;5342716;27;20281;-82
2022/07/02 02:33:09;;;;;;;6.80;3.20;;;;;;;;;;5340396;27;20032;-84
2022/07/02 02:35:40;;;;;;;7.27;3.03;;;;;;;;;;5342416;27;20334;-82
2022/07/02 02:38:11;;;;;;;8.07;3.00;;;;;;;;;;5341436;27;20342;-82
2022/07/02 02:40:42;;;;;;;4.47;3.05;;;;;;;;;;5338991;27;20040;-82
2022/07/02 02:43:13;;;;;;;10.40;3.10;;;;;;;;;;5338960;27;20115;-81
2022/07/02 02:45:45;;;;;;;7.90;2.80;;;;;;;;;;5334728;27;20330;-82
2022/07/02 02:48:16;;;;;;;6.20;2.88;;;;;;;;;;5340401;27;20249;-82
2022/07/02 02:50:47;;;;;;;7.30;2.65;;;;;;;;;;5342016;27;20498;-82
2022/07/02 02:53:18;;;;;;;6.45;2.80;;;;;;;;;;5319747;27;20020;-82
2022/07/02 02:55:50;;;;;;;6.83;2.63;;;;;;;;;;5341000;27;20084;-82
2022/07/02 02:58:21;;;;;;;9.05;3.05;;;;;;;;;;5316597;27;20290;-82
2022/07/02 03:00:52;;;;;;;8.27;2.75;;;;;;;;;;5339261;27;20475;-81
2022/07/02 03:03:24;;;;;;;6.72;3.35;;;;;;;;;;5337823;27;20491;-84
2022/07/02 03:05:55;;;;;;;5.40;2.95;;;;;;;;;;5337337;27;20843;-84
2022/07/02 03:08:26;;;;;;;5.57;3.20;;;;;;;;;;5343264;27;20047;-84
2022/07/02 03:10:58;;;;;;;8.25;3.00;;;;;;;;;;5336859;27;20286;-84
2022/07/02 03:13:29;;;;;;;5.80;2.78;;;;;;;;;;5320560;27;20429;-83
2022/07/02 03:16:00;;;;;;;5.77;2.80;;;;;;;;;;5340326;27;20031;-82
2022/07/02 03:18:31;;;;;;;9.83;2.93;;;;;;;;;;5336731;27;20606;-82
2022/07/02 03:21:02;;;;;;;7.03;2.90;;;;;;;;;;5333713;27;20399;-82
2022/07/02 03:23:34;;;;;;;6.95;2.92;;;;;;;;;;5315535;27;20103;-82
2022/07/02 03:26:05;;;;;;;6.78;3.20;;;;;;;;;;5322538;27;21165;-79
2022/07/02 03:28:36;;;;;;;6.60;3.10;;;;;;;;;;5337135;27;20059;-82
2022/07/02 03:31:07;;;;;;;9.98;3.25;;;;;;;;;;5341406;27;20958;-82
2022/07/02 03:33:38;;;;;;;13.70;3.97;;;;;;;;;;5334504;27;20019;-84
2022/07/02 03:36:11;;;;;;;6.43;3.23;;;;;;;;;;5320643;27;20034;-83
2022/07/02 03:38:42;;;;;;;9.80;3.20;;;;;;;;;;5339204;27;20767;-81
2022/07/02 03:41:14;;;;;;;6.00;3.20;;;;;;;;;;5336225;27;20216;-81
2022/07/02 03:43:45;;;;;;;6.15;3.30;;;;;;;;;;5334841;27;20460;-82
2022/07/02 03:46:17;;;;;;;5.30;3.15;;;;;;;;;;5334974;27;20169;-82
2022/07/02 03:48:48;;;;;;;7.70;2.80;;;;;;;;;;5316402;27;20475;-82
2022/07/02 03:51:21;;;;;;;5.40;2.70;;;;;;;;;;5313447;27;20032;-83
2022/07/02 03:53:52;;;;;;;6.20;2.92;;;;;;;;;;5336265;27;20096;-83
2022/07/02 03:56:23;;;;;;;7.07;3.00;;;;;;;;;;5333427;27;20027;-82
2022/07/02 03:58:54;;;;;;;4.90;2.83;;;;;;;;;;5314813;27;20062;-83
2022/07/02 04:01:25;;;;;;;5.18;2.72;;;;;;;;;;5337498;27;21007;-82
2022/07/02 04:03:57;;;;;;;3.03;2.47;;;;;;;;;;5333214;27;20055;-81
2022/07/02 04:06:28;;;;;;;6.30;3.20;;;;;;;;;;5332407;27;20027;-81
2022/07/02 04:08:59;;;;;;;6.13;3.10;;;;;;;;;;5333538;27;20385;-81
2022/07/02 04:11:30;;;;;;;5.47;3.03;;;;;;;;;;5335338;27;20289;-81
2022/07/02 04:14:02;;;;;;;5.18;2.83;;;;;;;;;;5331292;27;20026;-81
2022/07/02 04:16:33;;;;;;;8.52;3.40;;;;;;;;;;5332561;27;20144;-82
2022/07/02 04:19:04;;;;;;;6.85;3.30;;;;;;;;;;5333003;27;20031;-81
2022/07/02 04:21:36;;;;;;;7.73;4.00;;;;;;;;;;5335532;27;20027;-81
2022/07/02 04:24:07;;;;;;;6.83;3.80;;;;;;;;;;5318278;27;20741;-81
2022/07/02 04:26:38;;;;;;;7.13;3.60;;;;;;;;;;5335562;27;20334;-81
2022/07/02 04:29:09;;;;;;;7.18;3.72;;;;;;;;;;5332998;27;20031;-81
2022/07/02 04:31:40;;;;;;;12.03;4.17;;;;;;;;;;5332150;27;20399;-81
2022/07/02 04:34:14;;;;;;;5.60;3.87;;;;;;;;;;5330878;27;20309;-81
2022/07/02 04:36:45;;;;;;;5.40;3.72;;;;;;;;;;5335126;27;20055;-81
2022/07/02 04:39:17;;;;;;;9.07;3.90;;;;;;;;;;5316221;27;20114;-81
2022/07/02 04:41:48;;;;;;;6.50;3.80;;;;;;;;;;5315369;27;20059;-81
2022/07/02 04:44:19;;;;;;;7.13;3.73;;;;;;;;;;5336837;27;20027;-81
2022/07/02 04:46:50;;;;;;;7.90;3.65;;;;;;;;;;5322507;27;20023;-81
2022/07/02 04:49:22;;;;;;;7.50;3.78;;;;;;;;;;5337490;27;20073;-81
2022/07/02 04:51:53;;;;;;;6.03;3.50;;;;;;;;;;5341091;27;20035;-81
2022/07/02 04:54:24;;;;;;;6.13;3.23;;;;;;;;;;5340648;27;20040;-81
2022/07/02 04:56:56;;;;;;;7.33;3.60;;;;;;;;;;5339347;27;20028;-81
2022/07/02 04:59:27;;;;;;;4.90;3.43;;;;;;;;;;5337450;27;20816;-81
2022/07/02 05:01:58;;;;;;;6.72;3.42;;;;;;;;;;5340235;27;20284;-81
2022/07/02 05:04:29;;;;;;;5.20;3.60;;;;;;;;;;5338456;27;20388;-81
2022/07/02 05:07:00;;;;;;;5.43;3.22;;;;;;;;;;5318127;27;20250;-81
2022/07/02 05:09:32;;;;;;;6.18;3.70;;;;;;;;;;5334076;27;20169;-81
2022/07/02 05:12:03;;;;;;;6.00;2.83;;;;;;;;;;5339600;27;20028;-81
2022/07/02 05:14:35;;;;;;;8.60;2.90;;;;;;;;;;5319877;27;20119;-81
2022/07/02 05:17:06;;;;;;;5.05;3.63;;;;;;;;;;5316983;27;20568;-81
2022/07/02 05:19:37;;;;;;;7.53;3.20;;;;;;;;;;5341111;27;20027;-81
2022/07/02 05:22:08;;;;;;;5.80;2.85;;;;;;;;;;5338731;27;20785;-82
2022/07/02 05:24:40;;;;;;;5.27;2.90;;;;;;;;;;5339247;27;20034;-81
2022/07/02 05:27:11;;;;;;;5.37;3.03;;;;;;;;;;5337842;27;20764;-81
2022/07/02 05:29:42;;;;;;;6.77;2.80;;;;;;;;;;5339555;27;21744;-81
2022/07/02 05:32:13;;;;;;;4.37;2.90;;;;;;;;;;5318958;27;20364;-82
2022/07/02 05:34:44;;;;;;;7.17;2.87;;;;;;;;;;5339915;27;20226;-82
2022/07/02 05:37:15;;;;;;;5.23;2.53;;;;;;;;;;5339903;27;20024;-81
2022/07/02 05:39:47;;;;;;;4.33;2.37;;;;;;;;;;5336956;27;20250;-82
2022/07/02 05:42:18;;;;;;;5.47;2.67;;;;;;;;;;5335092;27;20286;-82
2022/07/02 05:44:49;;;;;;;6.13;2.30;;;;;;;;;;5319165;27;20023;-82
2022/07/02 05:47:20;;;;;;;5.90;2.30;;;;;;;;;;5335741;27;20166;-82
2022/07/02 05:49:52;;;;;;;5.13;2.47;;;;;;;;;;5321049;27;20261;-82
2022/07/02 05:52:23;;;;;;;3.25;2.00;;;;;;;;;;5340484;27;20070;-82
2022/07/02 05:54:54;;;;;;;2.63;1.90;;;;;;;;;;5316204;27;20448;-82
2022/07/02 05:57:26;;;;;;;4.97;2.07;;;;;;;;;;5321702;27;20699;-82
2022/07/02 05:59:57;;;;;;;5.13;1.73;;;;;;;;;;5334398;27;20500;-82
2022/07/02 06:02:30;;;;;;;6.43;2.33;;;;;;;;;;5317575;27;20413;-82
2022/07/02 06:07:38;;;;;;;8.18;1.88;;;;;;;;;;5317595;27;20249;-83
2022/07/02 06:07:56;;;;;;;7.65;2.58;;;;;;;;;;5337884;27;20612;-82
2022/07/02 06:10:27;;;;;;;3.22;2.00;;;;;;;;;;5337222;27;20077;-82
2022/07/02 06:12:58;;;;;;;3.13;1.35;;;;;;;;;;5320376;27;20122;-83
2022/07/02 06:15:30;;;;;;;4.43;1.70;;;;;;;;;;5334631;27;20028;-82
2022/07/02 06:18:01;;;;;;;4.97;1.60;;;;;;;;;;5336117;27;20062;-83
2022/07/02 06:20:32;;;;;;;4.87;1.40;;;;;;;;;;5316226;27;20031;-83
2022/07/02 06:23:03;;;;;;;4.13;1.50;;;;;;;;;;5338144;27;20028;-82
2022/07/02 06:25:34;;;;;;;4.90;1.30;;;;;;;;;;5335075;27;20275;-83
2022/07/02 06:28:06;;;;;;;4.10;1.30;;;;;;;;;;5332150;27;20277;-82
2022/07/02 06:30:37;;;;;;;3.77;1.20;;;;;;;;;;5333336;27;20026;-83
2022/07/02 06:33:23;;;;;;;2.83;0.90;;;;;;;;;;5321907;27;20296;-82
2022/07/02 06:35:57;;;;;;;1.98;0.93;;;;;;;;;;5317677;27;20737;-82
2022/07/02 06:44:51;;;;;;;3.22;0.85;;;;;;;;;;5340252;27;20032;-82
2022/07/02 06:47:25;;;;;;;1.90;0.90;;;;;;;;;;5320304;27;20051;-82
2022/07/02 06:50:02;;;;;;;2.35;0.90;;;;;;;;;;5337447;27;20468;-82
2022/07/02 06:52:33;;;;;;;2.15;0.90;;;;;;;;;;5312527;27;20052;-82
2022/07/02 06:55:07;;;;;;;3.17;0.80;;;;;;;;;;5338627;27;20057;-82
2022/07/02 06:57:38;;;;;;;3.75;0.77;;;;;;;;;;5340547;27;20244;-82
2022/07/02 07:00:10;;;;;;;2.13;0.55;;;;;;;;;;5323713;27;20047;-82
2022/07/02 07:02:41;;;;;;;3.60;0.80;;;;;;;;;;5359153;27;20359;-82
2022/07/02 07:05:12;;;;;;;0.98;0.40;;;;;;;;;;5356235;27;20019;-82
2022/07/02 07:07:44;;;;;;;2.77;0.60;;;;;;;;;;5359323;27;20382;-82
2022/07/02 07:10:15;;;;;;;2.70;0.70;;;;;;;;;;5360353;27;20106;-82
2022/07/02 07:12:46;;;;;;;1.70;0.60;;;;;;;;;;5363771;27;20090;-82
2022/07/02 07:15:17;;;;;;;1.77;0.50;;;;;;;;;;5359814;27;20023;-82
2022/07/02 07:17:48;;;;;;;1.92;0.60;;;;;;;;;;5357515;27;20526;-82
2022/07/02 07:20:26;;;;;;;1.50;0.45;;;;;;;;;;5355354;27;20034;-83
2022/07/02 07:22:59;;;;;;;2.00;0.65;;;;;;;;;;5349866;27;20016;-83
2022/07/02 07:25:32;;;;;;;1.23;0.70;;;;;;;;;;5353922;27;20042;-83
2022/07/02 07:28:03;;;;;;;2.03;0.50;;;;;;;;;;5357827;27;20035;-82
2022/07/02 07:30:34;;;;;;;1.20;0.68;;;;;;;;;;5353039;27;20032;-82
2022/07/02 07:33:05;;;;;;;2.20;0.60;;;;;;;;;;5361696;27;20140;-82
2022/07/02 07:35:37;;;;;;;3.20;0.57;;;;;;;;;;5361415;27;20027;-82
2022/07/02 07:38:08;;;;;;;1.43;0.60;;;;;;;;;;5358530;27;20023;-83
2022/07/02 07:40:39;;;;;;;1.97;0.73;;;;;;;;;;5361458;27;20276;-83
2022/07/02 07:43:10;;;;;;;3.90;0.70;;;;;;;;;;5349547;27;20368;-82
2022/07/02 07:45:42;;;;;;;3.33;0.93;;;;;;;;;;5357802;27;20106;-82
2022/07/02 07:48:13;;;;;;;3.10;0.80;;;;;;;;;;5366691;27;20043;-82
2022/07/02 07:50:44;;;;;;;2.20;0.80;;;;;;;;;;5362533;27;20105;-80
2022/07/02 07:53:15;;;;;;;2.83;0.70;;;;;;;;;;5351207;27;20482;-82
2022/07/02 07:55:48;;;;;;;2.53;0.70;;;;;;;;;;5353330;27;20278;-81
2022/07/02 07:58:20;;;;;;;2.35;0.55;;;;;;;;;;5351739;27;20035;-82
2022/07/02 08:00:51;;;;;;;4.13;0.75;;;;;;;;;;5360951;27;20499;-82
2022/07/02 08:03:22;;;;;;;3.83;0.97;;;;;;;;;;5348611;27;20519;-82
2022/07/02 08:05:56;;;;;;;2.90;0.87;;;;;;;;;;5358598;27;20621;-83
2022/07/02 08:08:28;;;;;;;3.45;0.90;;;;;;;;;;5352208;27;20360;-82
2022/07/02 08:10:59;;;;;;;3.83;0.90;;;;;;;;;;5367445;27;20421;-82
2022/07/02 08:13:30;;;;;;;4.07;0.97;;;;;;;;;;5367267;27;20035;-82
2022/07/02 08:16:02;;;;;;;4.50;0.85;;;;;;;;;;5366985;27;20269;-82
2022/07/02 08:18:33;;;;;;;2.85;0.80;;;;;;;;;;5371030;27;20072;-82
2022/07/02 08:21:04;;;;;;;1.97;0.70;;;;;;;;;;5371731;27;20039;-82
2022/07/02 08:23:36;;;;;;;2.95;1.00;;;;;;;;;;5378367;27;20043;-82
2022/07/02 08:26:07;;;;;;;2.83;0.83;;;;;;;;;;5353289;27;20169;-82
2022/07/02 08:28:38;;;;;;;4.13;1.10;;;;;;;;;;5357889;27;20258;-82
2022/07/02 08:31:12;;;;;;;2.90;0.90;;;;;;;;;;5356522;27;20340;-82
2022/07/02 08:33:43;;;;;;;2.45;0.88;;;;;;;;;;5356744;27;20058;-82
2022/07/02 08:36:15;;;;;;;2.33;0.83;;;;;;;;;;5352864;27;20023;-83
2022/07/02 08:38:46;;;;;;;3.30;1.00;;;;;;;;;;5364643;27;20019;-82
2022/07/02 08:41:17;;;;;;;2.37;0.57;;;;;;;;;;5357811;27;20051;-82
2022/07/02 08:43:51;;;;;;;4.72;0.77;;;;;;;;;;5367524;27;20034;-83
2022/07/02 08:46:23;;;;;;;3.13;0.88;;;;;;;;;;5351433;27;20062;-82
2022/07/02 08:48:55;;;;;;;3.88;0.63;;;;;;;;;;5363045;27;20027;-82
2022/07/02 08:51:27;;;;;;;2.20;0.70;;;;;;;;;;5365851;27;20031;-82
2022/07/02 08:53:59;;;;;;;3.25;0.88;;;;;;;;;;5356471;27;20208;-82
2022/07/02 08:56:31;;;;;;;2.65;0.88;;;;;;;;;;5353799;27;20079;-82
2022/07/02 08:59:02;;;;;;;3.20;0.80;;;;;;;;;;5354428;27;20027;-82
2022/07/02 09:01:34;;;;;;;5.07;1.00;;;;;;;;;;5366761;27;20062;-82
2022/07/02 09:04:06;;;;;;;2.17;0.70;;;;;;;;;;5365668;27;20023;-82
2022/07/02 09:06:37;;;;;;;2.70;0.63;;;;;;;;;;5356481;27;20058;-82
2022/07/02 09:09:09;;;;;;;3.15;0.82;;;;;;;;;;5360381;27;20371;-82
2022/07/02 09:11:40;;;;;;;4.40;0.90;;;;;;;;;;5361921;27;20027;-82
2022/07/02 09:14:12;;;;;;;3.75;0.98;;;;;;;;;;5362479;27;20401;-82
2022/07/02 09:16:43;;;;;;;2.95;0.88;;;;;;;;;;5361056;27;20027;-82
2022/07/02 09:19:15;;;;;;;2.67;0.70;;;;;;;;;;5359951;27;20043;-82
2022/07/02 09:21:51;;;;;;;3.53;1.02;;;;;;;;;;5362898;27;20034;-82
2022/07/02 09:24:40;;;;;;;4.53;0.82;;;;;;;;;;5360861;27;20039;-82
2022/07/02 09:27:12;;;;;;;3.03;0.90;;;;;;;;;;5360375;27;20031;-82
2022/07/02 09:29:47;;;;;;;3.60;0.63;;;;;;;;;;5359666;27;20427;-83
2022/07/02 09:32:19;;;;;;;2.75;0.90;;;;;;;;;;5357541;27;20032;-82
2022/07/02 09:34:54;;;;;;;3.45;0.90;;;;;;;;;;5360248;27;20091;-82
2022/07/02 09:37:25;;;;;;;3.15;0.80;;;;;;;;;;5355219;27;20027;-82
2022/07/02 09:40:00;;;;;;;3.63;1.00;;;;;;;;;;5377355;27;20026;-82
2022/07/02 09:42:31;;;;;;;;;;;;;;;;;;5353385;27;20028;-82
2022/07/02 09:45:04;;;;;;;2.38;0.80;;;;;;;;;;5359242;27;20294;-82
2022/07/02 09:47:37;;;;;;;2.15;0.85;;;;;;;;;;5363967;27;20088;-82
2022/07/02 09:50:12;;;;;;;2.97;1.08;;;;;;;;;;5362305;27;20479;-82
2022/07/02 09:52:50;;;;;;;4.20;0.90;;;;;;;;;;5360771;27;20399;-82
2022/07/02 09:55:24;;;;;;;2.53;0.60;;;;;;;;;;5362869;27;20613;-82
2022/07/02 09:57:57;;;;;;;3.05;0.85;;;;;;;;;;5363521;27;20443;-82
2022/07/02 10:00:29;;;;;;;5.05;1.00;;;;;;;;;;5351714;27;20044;-82
2022/07/02 10:03:01;;;;;;;3.67;1.00;;;;;;;;;;5338633;27;20031;-82
2022/07/02 10:05:35;;;;;;;3.50;0.80;;;;;;;;;;5341547;27;20027;-82
2022/07/02 10:08:07;;;;;;;4.30;0.82;;;;;;;;;;5339042;27;20019;-82
2022/07/02 10:10:41;;;;;;;4.80;0.80;;;;;;;;;;5338019;27;20039;-81
2022/07/02 10:13:13;;;;;;;3.67;0.80;;;;;;;;;;5337168;27;20396;-82
2022/07/02 10:15:50;;;;;;;2.22;0.95;;;;;;;;;;5323930;27;20092;-82
2022/07/02 10:18:23;;;;;;;3.55;1.10;;;;;;;;;;5341170;27;20487;-82
2022/07/02 10:20:56;;;;;;;4.35;0.90;;;;;;;;;;5339598;27;20131;-82
2022/07/02 10:23:28;;;;;;;4.00;0.70;;;;;;;;;;5340743;27;20027;-81
2022/07/02 10:25:59;;;;;;;4.67;1.10;;;;;;;;;;5337596;27;20030;-81
2022/07/02 10:28:30;;;;;;;2.53;0.90;;;;;;;;;;5337509;27;20270;-81
2022/07/02 10:31:02;;;;;;;2.07;0.77;;;;;;;;;;5332978;27;20035;-80
2022/07/02 10:33:41;;;;;;;2.88;0.80;;;;;;;;;;5336519;27;20040;-81
2022/07/02 10:36:14;;;;;;;2.00;0.82;;;;;;;;;;5334623;27;20027;-81
2022/07/02 10:38:46;;;;;;;2.72;0.75;;;;;;;;;;5339950;27;20036;-81
2022/07/02 10:41:23;;;;;;;2.92;0.80;;;;;;;;;;5316363;27;20030;-81
2022/07/02 10:43:56;;;;;;;1.98;0.68;;;;;;;;;;5337381;27;20019;-81
2022/07/02 10:46:33;;;;;;;3.90;0.80;;;;;;;;;;5338388;27;20019;-80
2022/07/02 10:49:07;;;;;;;2.85;0.77;;;;;;;;;;5314886;27;20038;-81
2022/07/02 10:51:38;;;;;;;1.95;0.65;;;;;;;;;;5336329;27;20102;-81
2022/07/02 10:54:09;;;;;;;1.80;0.63;;;;;;;;;;5336038;27;20106;-81
2022/07/02 10:56:45;;;;;;;1.90;0.70;;;;;;;;;;5332689;27;20430;-81
2022/07/02 10:59:35;;;;;;;2.58;0.60;;;;;;;;;;5313716;27;20512;-81
2022/07/02 11:02:07;;;;;;;3.42;0.70;;;;;;;;;;5332751;27;20453;-81
2022/07/02 11:04:41;;;;;;;1.90;0.80;;;;;;;;;;5335913;27;20024;-80
2022/07/02 11:07:13;;;;;;;2.30;0.40;;;;;;;;;;5343019;27;20028;-80
2022/07/02 11:09:50;;;;;;;2.13;0.55;;;;;;;;;;5348600;27;20039;-80
2022/07/02 11:12:26;;;;;;;1.63;0.57;;;;;;;;;;5344159;27;20096;-81
2022/07/02 11:14:58;;;;;;;0.90;0.40;;;;;;;;;;5341835;27;20061;-80
2022/07/02 11:17:30;;;;;;;3.60;0.60;;;;;;;;;;5320888;27;20428;-80
2022/07/02 11:20:01;;;;;;;2.90;0.70;;;;;;;;;;5335016;27;20829;-81
2022/07/02 11:22:32;;;;;;;1.23;0.47;;;;;;;;;;5312940;27;20053;-81
2022/07/02 11:25:04;;;;;;;1.77;0.40;;;;;;;;;;5342329;27;20032;-81
2022/07/02 11:27:35;;;;;;;4.38;0.57;;;;;;;;;;5331669;27;20052;-81
2022/07/02 11:30:06;;;;;;;3.40;0.50;;;;;;;;;;5342873;27;20027;-81
2022/07/02 11:32:38;;;;;;;3.92;0.60;;;;;;;;;;5340478;27;20028;-82
2022/07/02 11:35:09;;;;;;;2.13;0.40;;;;;;;;;;5335600;27;20019;-82
2022/07/02 11:37:43;;;;;;;1.83;0.37;;;;;;;;;;5338365;27;20383;-82
2022/07/02 11:40:23;;;;;;;3.20;0.70;;;;;;;;;;5337226;27;20019;-80
2022/07/02 11:42:55;;;;;;;1.80;0.50;;;;;;;;;;5332078;27;20344;-80
2022/07/02 11:45:26;;;;;;;3.57;0.70;;;;;;;;;;5332491;27;20314;-80
2022/07/02 11:47:57;;;;;;;2.87;0.60;;;;;;;;;;5339012;27;20424;-81
2022/07/02 11:50:31;;;;;;;2.35;0.47;;;;;;;;;;5315708;27;20407;-80
2022/07/02 11:53:02;;;;;;;2.47;0.40;;;;;;;;;;5317242;28;20540;-80
2022/07/02 11:55:33;;;;;;;4.13;0.70;;;;;;;;;;5313388;27;20031;-81
2022/07/02 11:58:04;;;;;;;8.50;1.10;;;;;;;;;;5338205;27;20036;-81
2022/07/02 12:00:36;;;;;;;1.93;0.40;;;;;;;;;;5335891;27;20364;-82
2022/07/02 12:03:09;;;;;;;1.25;0.60;;;;;;;;;;5338268;27;20047;-81
2022/07/02 12:05:50;;;;;;;1.90;0.70;;;;;;;;;;5317308;27;20130;-81
2022/07/02 12:08:21;;;;;;;1.17;0.52;;;;;;;;;;5337182;27;20036;-81
2022/07/02 12:10:53;;;;;;;1.03;0.60;;;;;;;;;;5339943;27;20046;-81
2022/07/02 12:13:24;;;;;;;2.15;0.60;;;;;;;;;;5334990;27;20114;-81
2022/07/02 12:15:55;;;;;;;2.90;0.97;;;;;;;;;;5324649;27;20027;-80
2022/07/02 12:18:26;;;;;;;1.80;0.70;;;;;;;;;;5346417;27;20031;-81
2022/07/02 12:21:07;;;;;;;2.47;0.90;;;;;;;;;;5336584;27;20028;-80
2022/07/02 12:23:45;;;;;;;3.75;0.70;;;;;;;;;;5337933;27;20164;-81
2022/07/02 12:26:24;;;;;;;4.00;0.60;;;;;;;;;;5335647;27;20032;-80
2022/07/02 12:31:47;;;;;;;0.98;0.52;;;;;;;;;;5338513;27;20065;-80
2022/07/02 12:34:20;;;;;;;1.50;0.90;;;;;;;;;;5337327;27;20084;-80
2022/07/02 12:36:55;;;;;;;4.88;0.90;;;;;;;;;;5338504;27;20031;-80
2022/07/02 12:39:38;;;;;;;3.10;0.77;;;;;;;;;;5345486;27;20024;-80
2022/07/02 12:42:18;;;;;;;2.42;0.70;;;;;;;;;;5322711;27;20093;-80
2022/07/02 12:44:59;;;;;;;2.17;1.30;;;;;;;;;;5333612;27;20023;-81
2022/07/02 12:47:32;;;;;;;5.45;0.80;;;;;;;;;;5335135;27;20028;-81
2022/07/02 12:50:11;;;;;;;1.45;0.52;;;;;;;;;;5345473;27;20382;-81
2022/07/02 12:52:44;;;;;;;3.97;0.80;;;;;;;;;;5345656;27;20024;-81
2022/07/02 12:55:22;;;;;;;3.22;0.70;;;;;;;;;;5333442;27;20021;-81
2022/07/02 12:57:54;;;;;;;3.78;0.60;;;;;;;;;;5335316;27;20127;-81
2022/07/02 13:00:26;;;;;;;1.67;0.70;;;;;;;;;;5343593;27;20054;-81
2022/07/02 13:02:58;;;;;;;2.33;1.10;;;;;;;;;;5343042;27;20036;-81
2022/07/02 13:05:30;;;;;;;1.63;0.65;;;;;;;;;;5328674;27;20123;-80
2022/07/02 13:08:02;;;;;;;2.78;0.50;;;;;;;;;;5336464;27;20821;-80
2022/07/02 13:10:33;;;;;;;2.55;0.80;;;;;;;;;;5338881;27;20976;-80
2022/07/02 13:13:05;;;;;;;2.83;0.77;;;;;;;;;;5337821;27;20092;-81
2022/07/02 13:15:37;;;;;;;2.67;0.60;;;;;;;;;;5345632;27;20027;-80
2022/07/02 13:18:08;;;;;;;1.40;0.80;;;;;;;;;;5349306;27;20270;-80
2022/07/02 13:20:40;;;;;;;2.53;1.00;;;;;;;;;;5347078;27;20447;-80
2022/07/02 13:23:11;;;;;;;1.85;0.65;;;;;;;;;;5347185;27;20024;-80
2022/07/02 13:25:43;;;;;;;1.93;0.80;;;;;;;;;;5325130;28;20701;-80
2022/07/02 13:28:14;;;;;;;1.03;0.40;;;;;;;;;;5337362;27;20016;-80
2022/07/02 13:30:45;;;;;;;4.47;0.90;;;;;;;;;;5347597;27;20354;-80
2022/07/02 13:33:16;;;;;;;3.53;0.50;;;;;;;;;;5346830;27;20080;-79
2022/07/02 13:35:47;;;;;;;3.13;0.57;;;;;;;;;;5320255;27;20024;-80
2022/07/02 13:38:19;;;;;;;2.50;0.50;;;;;;;;;;5347079;27;20494;-80
2022/07/02 13:40:50;;;;;;;1.67;0.40;;;;;;;;;;5347846;27;20101;-79
2022/07/02 13:43:21;;;;;;;3.27;0.50;;;;;;;;;;5319118;28;20020;-80
2022/07/02 13:45:52;;;;;;;4.73;0.60;;;;;;;;;;5342300;27;20383;-80
2022/07/02 13:48:23;;;;;;;7.60;0.70;;;;;;;;;;5349272;27;20027;-80
2022/07/02 13:50:55;;;;;;;1.13;0.40;;;;;;;;;;5328008;27;20072;-79
2022/07/02 13:53:26;;;;;;;0.63;0.47;;;;;;;;;;5331994;27;20015;-79
2022/07/02 13:55:57;;;;;;;0.80;0.40;;;;;;;;;;5345856;27;20051;-79
2022/07/02 13:58:28;;;;;;;3.37;0.60;;;;;;;;;;5332423;27;20126;-80
2022/07/02 14:01:00;;;;;;;5.07;0.33;;;;;;;;;;5349070;27;20043;-79
2022/07/02 14:03:31;;;;;;;1.67;0.60;;;;;;;;;;5341772;27;20098;-80
2022/07/02 14:06:02;;;;;;;1.15;0.30;;;;;;;;;;5345217;27;20410;-79
2022/07/02 14:08:34;;;;;;;0.73;0.35;;;;;;;;;;5345797;27;20067;-80
2022/07/02 14:11:08;;;;;;;2.30;0.40;;;;;;;;;;5329635;27;20032;-80
2022/07/02 14:13:39;;;;;;;2.38;0.45;;;;;;;;;;5324148;27;20380;-80
2022/07/02 14:16:10;;;;;;;2.45;0.50;;;;;;;;;;5331156;27;20078;-80
2022/07/02 14:18:41;;;;;;;3.20;0.60;;;;;;;;;;5344397;27;20028;-80
2022/07/02 14:21:13;;;;;;;2.17;0.65;;;;;;;;;;5337551;27;20036;-80
2022/07/02 14:23:44;;;;;;;2.47;0.57;;;;;;;;;;5355231;27;20023;-79
2022/07/02 14:26:16;;;;;;;2.47;0.50;;;;;;;;;;5358195;27;20031;-79
2022/07/02 14:28:47;;;;;;;0.77;0.40;;;;;;;;;;5342381;27;20031;-81
2022/07/02 14:31:18;;;;;;;1.77;0.40;;;;;;;;;;5346106;27;20062;-80
2022/07/02 14:33:49;;;;;;;2.83;0.50;;;;;;;;;;5332356;27;20155;-80
2022/07/02 14:36:20;;;;;;;1.20;0.40;;;;;;;;;;5336942;27;20032;-81
2022/07/02 14:38:51;;;;;;;4.57;0.57;;;;;;;;;;5338711;27;20036;-80
2022/07/02 14:41:32;;;;;;;3.17;0.50;;;;;;;;;;5336906;27;20352;-80
2022/07/02 14:44:03;;;;;;;2.47;0.50;;;;;;;;;;5333247;27;20395;-80
2022/07/02 14:46:34;;;;;;;1.23;0.50;;;;;;;;;;5339080;27;20043;-80
2022/07/02 14:49:06;;;;;;;4.22;0.57;;;;;;;;;;5347278;27;20032;-79
2022/07/02 14:51:37;;;;;;;1.98;0.68;;;;;;;;;;5345813;27;20035;-80
2022/07/02 14:54:08;;;;;;;1.07;0.50;;;;;;;;;;5346898;27;20344;-79
2022/07/02 14:56:39;;;;;;;1.43;0.33;;;;;;;;;;5316552;27;20027;-80
2022/07/02 14:59:14;;;;;;;2.37;0.40;;;;;;;;;;5311613;27;20107;-80
2022/07/02 15:01:46;;;;;;;6.20;0.70;;;;;;;;;;5327600;27;20048;-80
2022/07/02 15:04:17;;;;;;;4.13;0.50;;;;;;;;;;5335042;27;20032;-80
2022/07/02 15:06:48;;;;;;;0.93;0.37;;;;;;;;;;5335614;27;20028;-80
2022/07/02 15:09:19;;;;;;;3.53;0.67;;;;;;;;;;5333983;27;20288;-80
2022/07/02 15:11:50;;;;;;;3.17;0.50;;;;;;;;;;5335139;27;20125;-79
2022/07/02 15:17:11;;;;;;;2.67;0.60;;;;;;;;;;5336859;27;20035;-80
2022/07/02 15:19:44;;;;;;;0.87;0.63;;;;;;;;;;5335716;27;20087;-80
2022/07/02 15:22:18;;;;;;;1.85;0.60;;;;;;;;;;5316774;27;20215;-80
2022/07/02 15:24:52;;;;;;;4.53;0.80;;;;;;;;;;5334866;27;20352;-80
2022/07/02 15:27:23;;;;;;;2.08;1.10;;;;;;;;;;5331288;27;20040;-80